MSC Lara — HPUD — position and weather

sailwx.info

Track history (hours):
 
Tides and Currents Weather Stations Pressure Air Temp Water Temp Dewpoint Dewpoint Depression Visibility Wind Speed Wind Dir Waves Ship Positions

MSC Lara

Last reported at 2016-Nov-24 00:20 UTC. Time now 2016-Dec-09 00:09 UTC.
Position S 29°33' E 031°37'.
Warning: this ship's position is 14 days out of date.

Type: Ship (hazmat cat A). MMSI: 355746000.

Date/timePositionNaut miles runAvg speedWind from/ knotsBaromVisibWave heightAir tempDewpointWater temp
2016-Nov-24 00:20S 29°33' E 031°37'1215.2
2016-Nov-23 23:33S 29°40' E 031°26'1514.7
2016-Nov-23 22:33S 29°49' E 031°13'1010.0
2016-Nov-23 21:33S 29°52' E 031°02'1 0.6
2016-Nov-23 20:30S 29°53' E 031°01'0 0.0
2016-Nov-23 19:33S 29°53' E 031°01'0 0.0
2016-Nov-23 18:27S 29°53' E 031°01'0 0.0
2016-Nov-23 17:30S 29°53' E 031°01'0 0.0
2016-Nov-23 16:33S 29°53' E 031°01'0 0.0
2016-Nov-23 15:33S 29°53' E 031°01'0 0.0
2016-Nov-23 14:33S 29°53' E 031°01'0 0.0
2016-Nov-23 13:30S 29°53' E 031°01'0 0.0
2016-Nov-23 12:33S 29°53' E 031°01'0 0.0
2016-Nov-23 11:30S 29°53' E 031°01'0 0.0
2016-Nov-23 10:33S 29°53' E 031°01'0 0.0
2016-Nov-23 09:09S 29°53' E 031°01'0 0.0
2016-Nov-23 08:33S 29°53' E 031°01'0 0.0
2016-Nov-23 07:33S 29°53' E 031°01'0 0.0
2016-Nov-23 06:30S 29°53' E 031°01'0 0.0
2016-Nov-23 03:33S 29°53' E 031°01'0 0.0
2016-Nov-23 02:33S 29°53' E 031°01'0 0.0
2016-Nov-23 00:33S 29°53' E 031°01'0 0.0
2016-Nov-22 23:30S 29°53' E 031°01'0 0.0
2016-Nov-22 22:29S 29°53' E 031°01'0 0.0
2016-Nov-22 20:32S 29°53' E 031°01'0 0.0
2016-Nov-22 19:33S 29°53' E 031°01'0 0.0
2016-Nov-22 17:24S 29°53' E 031°01'0 0.0
2016-Nov-22 16:33S 29°53' E 031°01'0 0.0
2016-Nov-22 15:33S 29°53' E 031°01'0 0.0
2016-Nov-22 14:33S 29°53' E 031°01'0 0.0
2016-Nov-22 13:33S 29°53' E 031°01'0 0.0
2016-Nov-22 10:33S 29°53' E 031°01'0 0.0
2016-Nov-22 09:33S 29°53' E 031°01'0 0.0
2016-Nov-22 08:32S 29°53' E 031°01'0 0.0
2016-Nov-22 07:32S 29°53' E 031°01'0 0.0
2016-Nov-22 05:29S 29°53' E 031°01'0 0.0
2016-Nov-22 04:32S 29°53' E 031°01'0 0.0
2016-Nov-22 03:32S 29°53' E 031°01'0 0.0
2016-Nov-22 02:32S 29°53' E 031°01'0 0.0
2016-Nov-21 23:32S 29°53' E 031°01'0 0.0
2016-Nov-21 21:32S 29°53' E 031°01'9 2.2
2016-Nov-21 17:33S 29°49' E 031°11'15 5.0
2016-Nov-21 14:32S 30°03' E 031°02'7 6.9
2016-Nov-21 13:27S 30°08' E 030°56'1 0.9
2016-Nov-21 12:30S 30°07' E 030°57'1 0.9
2016-Nov-21 11:32S 30°07' E 030°57'4 1.4
2016-Nov-21 08:34S 30°04' E 031°00'2 1.7
2016-Nov-21 07:31S 30°02' E 031°02'3 1.6
2016-Nov-21 05:33S 30°00' E 031°04'1 1.3
2016-Nov-21 04:32S 29°59' E 031°05'2 1.2
2016-Nov-21 02:33S 29°58' E 031°07'2 1.0
2016-Nov-21 00:34S 29°57' E 031°09'3 1.4
2016-Nov-20 22:34S 29°56' E 031°06'1 0.7
2016-Nov-20 21:34S 29°56' E 031°06'18 4.4
2016-Nov-20 17:32S 29°48' E 031°24'1212.2
2016-Nov-20 16:33S 29°39' E 031°34'  
Track history (hours):
 
Tides and Currents Weather Stations Pressure Air Temp Water Temp Dewpoint Dewpoint Depression Visibility Wind Speed Wind Dir Waves Ship Positions

MSC Lara

Last reported at 2016-Nov-24 00:20 UTC. Time now 2016-Dec-09 00:09 UTC.
Position S 29°33' E 031°37'.
Warning: this ship's position is 14 days out of date.

Type: Ship (hazmat cat A). MMSI: 355746000.

Date/timePositionNaut miles runAvg speedWind from/ knotsBaromVisibWave heightAir tempDewpointWater temp
2016-Nov-24 00:20S 29°33' E 031°37'1215.2
2016-Nov-23 23:33S 29°40' E 031°26'1514.7
2016-Nov-23 22:33S 29°49' E 031°13'1010.0
2016-Nov-23 21:33S 29°52' E 031°02'1 0.6
2016-Nov-23 20:30S 29°53' E 031°01'0 0.0
2016-Nov-23 19:33S 29°53' E 031°01'0 0.0
2016-Nov-23 18:27S 29°53' E 031°01'0 0.0
2016-Nov-23 17:30S 29°53' E 031°01'0 0.0
2016-Nov-23 16:33S 29°53' E 031°01'0 0.0
2016-Nov-23 15:33S 29°53' E 031°01'0 0.0
2016-Nov-23 14:33S 29°53' E 031°01'0 0.0
2016-Nov-23 13:30S 29°53' E 031°01'0 0.0
2016-Nov-23 12:33S 29°53' E 031°01'0 0.0
2016-Nov-23 11:30S 29°53' E 031°01'0 0.0
2016-Nov-23 10:33S 29°53' E 031°01'0 0.0
2016-Nov-23 09:09S 29°53' E 031°01'0 0.0
2016-Nov-23 08:33S 29°53' E 031°01'0 0.0
2016-Nov-23 07:33S 29°53' E 031°01'0 0.0
2016-Nov-23 06:30S 29°53' E 031°01'0 0.0
2016-Nov-23 03:33S 29°53' E 031°01'0 0.0
2016-Nov-23 02:33S 29°53' E 031°01'0 0.0
2016-Nov-23 00:33S 29°53' E 031°01'0 0.0
2016-Nov-22 23:30S 29°53' E 031°01'0 0.0
2016-Nov-22 22:29S 29°53' E 031°01'0 0.0
2016-Nov-22 20:32S 29°53' E 031°01'0 0.0
2016-Nov-22 19:33S 29°53' E 031°01'0 0.0
2016-Nov-22 17:24S 29°53' E 031°01'0 0.0
2016-Nov-22 16:33S 29°53' E 031°01'0 0.0
2016-Nov-22 15:33S 29°53' E 031°01'0 0.0
2016-Nov-22 14:33S 29°53' E 031°01'0 0.0
2016-Nov-22 13:33S 29°53' E 031°01'0 0.0
2016-Nov-22 10:33S 29°53' E 031°01'0 0.0
2016-Nov-22 09:33S 29°53' E 031°01'0 0.0
2016-Nov-22 08:32S 29°53' E 031°01'0 0.0
2016-Nov-22 07:32S 29°53' E 031°01'0 0.0
2016-Nov-22 05:29S 29°53' E 031°01'0 0.0
2016-Nov-22 04:32S 29°53' E 031°01'0 0.0
2016-Nov-22 03:32S 29°53' E 031°01'0 0.0
2016-Nov-22 02:32S 29°53' E 031°01'0 0.0
2016-Nov-21 23:32S 29°53' E 031°01'0 0.0
2016-Nov-21 21:32S 29°53' E 031°01'9 2.2
2016-Nov-21 17:33S 29°49' E 031°11'15 5.0
2016-Nov-21 14:32S 30°03' E 031°02'7 6.9
2016-Nov-21 13:27S 30°08' E 030°56'1 0.9
2016-Nov-21 12:30S 30°07' E 030°57'1 0.9
2016-Nov-21 11:32S 30°07' E 030°57'4 1.4
2016-Nov-21 08:34S 30°04' E 031°00'2 1.7
2016-Nov-21 07:31S 30°02' E 031°02'3 1.6
2016-Nov-21 05:33S 30°00' E 031°04'1 1.3
2016-Nov-21 04:32S 29°59' E 031°05'2 1.2
2016-Nov-21 02:33S 29°58' E 031°07'2 1.0
2016-Nov-21 00:34S 29°57' E 031°09'3 1.4
2016-Nov-20 22:34S 29°56' E 031°06'1 0.7
2016-Nov-20 21:34S 29°56' E 031°06'18 4.4
2016-Nov-20 17:32S 29°48' E 031°24'1212.2
2016-Nov-20 16:33S 29°39' E 031°34'  

Dump ship's entire track history